Time;durP1;ratioP1;P1;durP2;ratioP2;P2;SDS_P1;SDS_P2;PMS_P1;PMS_P2;Temp;Humidity;BMP_temperature;BMP_pressure;BME280_temperature;BME280_humidity;BME280_pressure;Samples;Min_cycle;Max_cycle;Signal;HPM_P1;HPM_P2
2023/12/26 00:00:15;;;;;;;7.83;6.93;;;9.30;99.90;;;;;;5019743;28;20235;-51
2023/12/26 00:02:40;;;;;;;8.67;5.73;;;9.30;99.90;;;;;;5022407;28;20191;-52
2023/12/26 00:05:06;;;;;;;10.23;5.53;;;9.30;99.90;;;;;;5018000;28;20246;-51
2023/12/26 00:07:32;;;;;;;7.70;5.17;;;9.30;99.90;;;;;;5012007;28;20235;-51
2023/12/26 00:09:58;;;;;;;10.77;5.30;;;9.30;99.90;;;;;;5015135;28;20434;-51
2023/12/26 00:12:24;;;;;;;9.13;5.47;;;9.30;99.90;;;;;;5015064;28;20188;-53
2023/12/26 00:14:50;;;;;;;6.00;4.83;;;9.30;99.90;;;;;;5016647;28;20296;-52
2023/12/26 00:17:16;;;;;;;8.20;4.27;;;9.40;99.90;;;;;;5016666;28;20457;-51
2023/12/26 00:19:42;;;;;;;7.87;4.33;;;9.30;99.90;;;;;;5015744;28;20441;-52
2023/12/26 00:22:07;;;;;;;4.93;3.13;;;9.30;99.90;;;;;;5015786;28;20233;-52
2023/12/26 00:24:33;;;;;;;8.00;3.80;;;9.30;99.90;;;;;;5018900;28;20245;-52
2023/12/26 00:26:59;;;;;;;9.73;3.20;;;9.30;99.90;;;;;;5012818;28;20262;-52
2023/12/26 00:29:25;;;;;;;7.43;2.77;;;9.30;99.90;;;;;;5020143;28;20212;-52
2023/12/26 00:31:50;;;;;;;4.30;2.47;;;9.30;99.90;;;;;;5021595;28;20624;-52
2023/12/26 00:34:16;;;;;;;4.53;2.50;;;9.20;99.90;;;;;;5014642;28;20230;-52
2023/12/26 00:36:42;;;;;;;4.70;2.30;;;9.20;99.90;;;;;;5009352;28;20188;-51
2023/12/26 00:39:07;;;;;;;4.63;1.90;;;9.20;99.90;;;;;;5017413;28;20667;-52
2023/12/26 00:41:33;;;;;;;3.67;1.97;;;9.10;95.00;;;;;;5017393;28;20245;-52
2023/12/26 00:43:58;;;;;;;3.90;1.73;;;9.10;96.50;;;;;;5011689;28;20234;-52
2023/12/26 00:46:24;;;;;;;4.97;1.57;;;9.10;96.40;;;;;;5010973;28;20692;-52
2023/12/26 00:48:50;;;;;;;3.87;1.80;;;9.10;93.20;;;;;;5014596;28;20704;-52
2023/12/26 00:51:16;;;;;;;4.20;2.10;;;9.10;98.30;;;;;;5022809;28;20204;-52
2023/12/26 00:53:41;;;;;;;3.93;1.87;;;9.10;97.80;;;;;;5021344;28;20454;-52
2023/12/26 00:56:07;;;;;;;3.23;1.50;;;9.10;99.90;;;;;;5016689;28;20551;-52
2023/12/26 00:58:33;;;;;;;2.30;1.30;;;9.10;97.40;;;;;;5015871;28;20192;-52
2023/12/26 01:00:59;;;;;;;4.17;1.60;;;9.10;95.60;;;;;;5016392;28;20498;-51
2023/12/26 01:03:25;;;;;;;6.47;1.67;;;9.00;95.60;;;;;;5017232;28;20662;-52
2023/12/26 01:05:51;;;;;;;3.87;1.23;;;9.00;99.90;;;;;;5016672;28;20265;-52
2023/12/26 01:08:18;;;;;;;1.77;1.20;;;9.00;99.90;;;;;;5017157;28;20223;-52
2023/12/26 01:10:44;;;;;;;3.57;1.57;;;9.00;99.90;;;;;;5017152;28;20446;-51
2023/12/26 01:13:10;;;;;;;4.33;1.30;;;9.00;99.90;;;;;;5019630;28;20796;-52
2023/12/26 01:15:37;;;;;;;4.87;1.73;;;9.00;99.90;;;;;;5015833;28;20500;-52
2023/12/26 01:18:03;;;;;;;4.93;1.53;;;9.00;99.90;;;;;;5015175;28;20195;-51
2023/12/26 01:20:29;;;;;;;4.13;1.50;;;9.00;99.90;;;;;;5022231;28;20429;-52
2023/12/26 01:22:55;;;;;;;2.73;1.40;;;9.00;99.90;;;;;;5017714;28;20818;-51
2023/12/26 01:25:20;;;;;;;4.00;1.37;;;9.10;99.90;;;;;;5020487;28;20443;-51
2023/12/26 01:27:47;;;;;;;3.03;1.60;;;9.10;99.90;;;;;;5017752;28;20239;-51
2023/12/26 01:30:13;;;;;;;5.97;1.77;;;9.10;99.90;;;;;;5022554;28;20196;-51
2023/12/26 01:32:39;;;;;;;1.43;1.30;;;9.00;99.90;;;;;;5018401;28;20563;-51
2023/12/26 01:35:05;;;;;;;6.93;1.80;;;9.00;99.90;;;;;;5016818;28;20184;-51
2023/12/26 01:37:31;;;;;;;1.83;1.70;;;9.00;99.90;;;;;;5019396;28;20557;-51
2023/12/26 01:39:57;;;;;;;6.23;1.93;;;9.10;99.90;;;;;;5018724;28;20473;-51
2023/12/26 01:42:22;;;;;;;2.33;1.90;;;9.10;99.90;;;;;;5014903;28;20747;-51
2023/12/26 01:44:48;;;;;;;3.30;1.77;;;9.10;99.90;;;;;;5012760;28;20186;-52
2023/12/26 01:47:15;;;;;;;2.07;1.60;;;9.10;99.90;;;;;;5017592;28;20228;-51
2023/12/26 01:49:41;;;;;;;2.13;1.33;;;9.10;99.90;;;;;;5023200;28;20223;-51
2023/12/26 01:52:09;;;;;;;2.07;1.67;;;9.10;99.90;;;;;;5020093;28;20454;-52
2023/12/26 01:54:37;;;;;;;2.20;1.90;;;9.10;99.90;;;;;;5022569;28;20183;-51
2023/12/26 01:57:06;;;;;;;2.70;1.70;;;9.20;99.90;;;;;;5015363;28;20436;-51
2023/12/26 01:59:36;;;;;;;2.07;1.87;;;9.20;99.90;;;;;;5011081;28;20467;-51
2023/12/26 02:02:03;;;;;;;3.90;2.20;;;9.20;99.90;;;;;;5021291;28;20435;-52
2023/12/26 02:04:29;;;;;;;2.80;2.20;;;9.20;99.90;;;;;;5013475;28;20497;-52
2023/12/26 02:06:57;;;;;;;3.83;2.30;;;9.20;99.90;;;;;;5017817;28;21021;-51
2023/12/26 02:09:24;;;;;;;4.93;2.20;;;9.20;99.90;;;;;;5017428;28;20961;-51
2023/12/26 02:11:52;;;;;;;2.40;1.83;;;9.20;99.90;;;;;;5017116;28;20437;-52
2023/12/26 02:14:18;;;;;;;5.20;2.20;;;9.20;99.90;;;;;;5015634;28;20549;-52
2023/12/26 02:16:46;;;;;;;2.67;2.30;;;9.20;99.90;;;;;;5015248;28;20449;-50
2023/12/26 02:19:12;;;;;;;7.23;2.60;;;9.30;99.90;;;;;;5014862;28;20439;-51
2023/12/26 02:21:38;;;;;;;2.93;2.50;;;9.30;99.90;;;;;;5018199;28;20450;-52
2023/12/26 02:24:04;;;;;;;2.40;1.90;;;9.30;99.90;;;;;;5015392;28;20438;-52
2023/12/26 02:26:33;;;;;;;3.70;2.30;;;9.30;99.90;;;;;;5019251;28;20228;-51
2023/12/26 02:29:00;;;;;;;2.43;2.23;;;9.30;99.90;;;;;;5021276;28;20196;-51
2023/12/26 02:31:27;;;;;;;1.70;1.60;;;9.30;99.90;;;;;;5016156;28;20443;-52
2023/12/26 02:33:53;;;;;;;2.00;1.80;;;9.30;99.90;;;;;;5015141;28;20439;-52
2023/12/26 02:36:20;;;;;;;3.93;1.87;;;9.30;99.90;;;;;;5019302;28;20488;-52
2023/12/26 02:38:46;;;;;;;1.47;1.37;;;9.30;99.90;;;;;;5018510;28;20633;-52
2023/12/26 02:41:12;;;;;;;1.93;1.30;;;9.40;99.90;;;;;;5010854;28;20443;-52
2023/12/26 02:43:37;;;;;;;2.47;1.30;;;9.30;99.90;;;;;;5015535;28;20446;-51
2023/12/26 02:46:03;;;;;;;2.50;1.17;;;9.40;99.90;;;;;;5013325;28;20192;-51
2023/12/26 02:48:29;;;;;;;2.03;1.10;;;9.30;99.90;;;;;;5015520;28;21733;-51
2023/12/26 02:50:55;;;;;;;2.20;1.20;;;9.30;99.90;;;;;;5015270;28;20240;-52
2023/12/26 02:53:20;;;;;;;1.50;1.40;;;9.30;99.90;;;;;;5020767;28;20280;-52
2023/12/26 02:55:53;;;;;;;1.77;1.10;;;9.30;99.90;;;;;;5016455;28;20562;-52
2023/12/26 02:58:20;;;;;;;2.90;1.00;;;9.30;99.90;;;;;;5013748;28;20246;-52
2023/12/26 03:00:46;;;;;;;1.73;1.20;;;9.30;99.90;;;;;;5014093;28;20449;-52
2023/12/26 03:03:12;;;;;;;1.83;1.00;;;9.30;99.90;;;;;;5016998;28;20439;-52
2023/12/26 03:05:37;;;;;;;1.00;0.83;;;9.40;99.00;;;;;;5015309;28;20663;-51
2023/12/26 03:08:04;;;;;;;5.80;1.00;;;9.30;79.50;;;;;;5013717;28;20216;-52
2023/12/26 03:10:29;;;;;;;1.30;1.20;;;9.40;88.40;;;;;;5019927;28;20194;-52
2023/12/26 03:12:55;;;;;;;3.50;1.30;;;9.30;77.70;;;;;;5017163;28;20439;-52
2023/12/26 03:15:21;;;;;;;2.03;1.00;;;9.30;95.10;;;;;;5022011;28;20191;-52
2023/12/26 03:17:46;;;;;;;1.87;0.90;;;9.30;92.70;;;;;;5011499;28;20192;-52
2023/12/26 03:20:12;;;;;;;3.37;1.30;;;9.30;95.30;;;;;;5016975;28;20559;-51
2023/12/26 03:22:41;;;;;;;2.00;0.90;;;9.30;99.80;;;;;;5016139;28;20216;-51
2023/12/26 03:25:07;;;;;;;5.43;1.10;;;9.30;99.90;;;;;;5015894;28;20206;-52
2023/12/26 03:27:33;;;;;;;7.50;1.20;;;9.30;99.70;;;;;;5016533;28;20492;-52
2023/12/26 03:29:59;;;;;;;2.60;1.23;;;9.30;99.90;;;;;;5015742;28;20439;-52
2023/12/26 03:32:25;;;;;;;1.37;1.00;;;9.30;99.90;;;;;;5019236;28;20449;-53
2023/12/26 03:34:50;;;;;;;1.63;1.30;;;9.30;99.90;;;;;;5016855;28;20750;-53
2023/12/26 03:37:16;;;;;;;1.30;1.00;;;9.30;96.40;;;;;;5018725;28;20192;-52
2023/12/26 03:39:42;;;;;;;3.83;1.10;;;9.20;99.30;;;;;;5014604;28;20774;-52
2023/12/26 03:42:08;;;;;;;3.93;1.93;;;9.20;95.00;;;;;;5009969;28;20250;-52
2023/12/26 03:44:34;;;;;;;1.47;1.20;;;9.20;84.80;;;;;;5011641;28;20188;-51
2023/12/26 03:46:59;;;;;;;1.13;0.90;;;9.30;98.40;;;;;;5019719;28;20527;-52
2023/12/26 03:49:25;;;;;;;1.57;1.07;;;9.20;76.30;;;;;;5017533;28;20192;-52
2023/12/26 03:51:51;;;;;;;3.33;1.20;;;9.20;38.50;;;;;;5010773;28;20192;-53
2023/12/26 03:54:18;;;;;;;5.20;1.40;;;9.20;12.50;;;;;;5024834;28;20183;-52
2023/12/26 03:56:44;;;;;;;1.93;0.90;;;9.20;16.60;;;;;;5018683;28;20187;-52
2023/12/26 03:59:09;;;;;;;1.50;1.10;;;9.20;41.90;;;;;;5019587;28;20968;-52
2023/12/26 04:01:35;;;;;;;2.50;0.90;;;9.20;38.40;;;;;;5013535;28;20193;-53
2023/12/26 04:04:02;;;;;;;2.03;1.03;;;9.20;40.80;;;;;;5017394;28;20191;-52
2023/12/26 04:06:28;;;;;;;4.10;1.10;;;9.20;27.80;;;;;;5012616;28;20240;-52
2023/12/26 04:08:53;;;;;;;3.00;1.30;;;9.20;8.00;;;;;;5018525;28;20488;-52
2023/12/26 04:11:19;;;;;;;5.40;1.03;;;9.20;11.80;;;;;;5013580;28;20193;-52
2023/12/26 04:13:45;;;;;;;1.17;1.07;;;9.20;1.00;;;;;;5015900;28;20556;-52
2023/12/26 04:16:10;;;;;;;7.33;1.00;;;9.20;1.00;;;;;;5016329;28;20198;-52
2023/12/26 04:18:36;;;;;;;6.33;1.20;;;9.20;1.00;;;;;;5013407;28;20191;-52
2023/12/26 04:21:02;;;;;;;2.03;1.00;;;9.20;1.00;;;;;;5016055;28;20191;-52
2023/12/26 04:23:28;;;;;;;3.00;1.30;;;9.20;1.00;;;;;;5012623;28;20651;-52
2023/12/26 04:25:53;;;;;;;2.70;1.10;;;9.20;1.00;;;;;;5021444;28;20642;-52
2023/12/26 04:28:19;;;;;;;5.37;1.50;;;9.20;1.00;;;;;;5023096;28;20285;-52
2023/12/26 04:30:45;;;;;;;4.97;1.60;;;9.10;1.00;;;;;;5018711;28;20206;-53
2023/12/26 04:33:12;;;;;;;15.93;2.00;;;9.20;1.00;;;;;;5024754;28;20435;-52
2023/12/26 04:35:38;;;;;;;8.87;1.40;;;9.30;1.00;;;;;;5013349;28;20652;-53
2023/12/26 04:38:03;;;;;;;3.80;1.67;;;9.30;1.00;;;;;;5018626;28;20525;-52
2023/12/26 04:40:29;;;;;;;2.87;1.40;;;9.20;99.90;;;;;;5018964;28;20184;-52
2023/12/26 04:42:57;;;;;;;4.53;1.70;;;9.20;99.90;;;;;;5025152;28;20302;-52
2023/12/26 04:45:23;;;;;;;3.97;1.70;;;9.20;99.90;;;;;;5020785;28;20199;-52
2023/12/26 04:47:48;;;;;;;7.47;1.77;;;9.20;1.00;;;;;;5018299;28;21005;-53
2023/12/26 04:50:14;;;;;;;4.57;1.87;;;9.20;99.90;;;;;;5015945;28;20302;-52
2023/12/26 04:52:40;;;;;;;8.83;1.90;;;9.20;99.90;;;;;;5018277;28;20215;-53
2023/12/26 04:55:06;;;;;;;7.57;1.70;;;9.10;99.90;;;;;;5017126;28;20533;-52
2023/12/26 04:57:31;;;;;;;10.13;1.50;;;9.10;99.90;;;;;;5018830;28;20192;-53
2023/12/26 04:59:57;;;;;;;5.57;1.70;;;9.10;1.10;;;;;;5022813;28;20895;-53
2023/12/26 05:02:23;;;;;;;7.57;1.60;;;9.10;1.00;;;;;;5018935;28;20645;-53
2023/12/26 05:04:48;;;;;;;8.50;2.23;;;9.10;99.90;;;;;;5017024;28;20205;-53
2023/12/26 05:07:14;;;;;;;10.90;2.03;;;9.00;99.90;;;;;;5014770;28;20315;-53
2023/12/26 05:09:40;;;;;;;9.73;2.37;;;9.00;24.00;;;;;;5021518;28;20188;-53
2023/12/26 05:12:06;;;;;;;14.73;2.63;;;8.90;99.90;;;;;;5017960;28;20190;-52
2023/12/26 05:14:32;;;;;;;9.93;1.90;;;8.80;1.00;;;;;;5018308;28;20743;-52
2023/12/26 05:16:58;;;;;;;14.03;1.97;;;8.80;99.90;;;;;;5022101;28;20473;-53
2023/12/26 05:19:24;;;;;;;15.30;2.33;;;8.80;99.90;;;;;;5017079;28;20245;-54
2023/12/26 05:21:50;;;;;;;9.07;2.00;;;8.80;99.90;;;;;;5020578;28;20188;-53
2023/12/26 05:24:16;;;;;;;13.80;2.57;;;8.80;99.90;;;;;;5019534;28;20191;-53
2023/12/26 05:26:43;;;;;;;12.73;2.50;;;8.70;99.90;;;;;;5018642;28;20547;-53
2023/12/26 05:29:10;;;;;;;14.70;2.30;;;8.70;99.90;;;;;;5020397;28;20191;-52
2023/12/26 05:31:36;;;;;;;11.77;2.13;;;8.70;1.00;;;;;;5016878;28;20943;-54
2023/12/26 05:34:03;;;;;;;7.70;2.33;;;8.60;1.00;;;;;;5018668;28;20441;-52
2023/12/26 05:36:29;;;;;;;8.30;2.20;;;8.60;99.90;;;;;;5017645;28;20441;-53
2023/12/26 05:38:55;;;;;;;15.97;2.40;;;8.60;1.00;;;;;;5019180;28;20434;-52
2023/12/26 05:41:21;;;;;;;13.13;2.20;;;8.60;1.00;;;;;;5012708;28;20489;-53
2023/12/26 05:43:47;;;;;;;11.07;2.47;;;8.60;16.10;;;;;;5019891;28;20282;-53
2023/12/26 05:46:12;;;;;;;12.17;2.60;;;8.70;1.00;;;;;;5014677;28;20917;-53
2023/12/26 05:48:41;;;;;;;9.93;2.17;;;8.70;1.00;;;;;;5018959;28;20547;-53
2023/12/26 05:51:07;;;;;;;23.00;2.60;;;8.70;1.00;;;;;;5019295;28;20241;-53
2023/12/26 05:53:33;;;;;;;14.43;1.80;;;8.70;1.00;;;;;;5017011;28;20521;-53
2023/12/26 05:55:59;;;;;;;15.10;2.37;;;8.70;99.90;;;;;;5013395;28;21339;-53
2023/12/26 05:58:25;;;;;;;6.87;2.00;;;8.70;1.00;;;;;;5019738;28;20195;-52
2023/12/26 06:00:51;;;;;;;13.00;2.10;;;8.60;1.00;;;;;;5020755;28;20230;-53
2023/12/26 06:03:17;;;;;;;7.00;2.13;;;8.60;1.00;;;;;;5010868;28;20442;-52
2023/12/26 06:05:42;;;;;;;15.97;2.33;;;8.60;99.90;;;;;;5013333;28;20446;-52
2023/12/26 06:08:08;;;;;;;21.87;2.50;;;8.60;1.00;;;;;;5015096;28;20231;-52
2023/12/26 06:10:34;;;;;;;16.30;2.73;;;8.70;1.00;;;;;;5014406;28;20184;-53
2023/12/26 06:12:59;;;;;;;15.63;3.13;;;8.70;99.90;;;;;;5019367;28;20652;-53
2023/12/26 06:15:25;;;;;;;11.80;2.20;;;8.60;1.00;;;;;;5017490;28;20195;-53
2023/12/26 06:17:51;;;;;;;11.87;2.23;;;8.60;1.00;;;;;;5022797;28;20199;-52
2023/12/26 06:20:21;;;;;;;16.53;2.50;;;8.60;99.90;;;;;;5018481;28;20250;-52
2023/12/26 06:22:47;;;;;;;12.93;2.67;;;8.60;48.60;;;;;;5018057;28;20246;-53
2023/12/26 06:25:12;;;;;;;16.77;3.77;;;8.60;1.00;;;;;;5011156;28;20439;-52
2023/12/26 06:27:38;;;;;;;10.73;2.43;;;8.60;99.90;;;;;;5018587;28;20215;-52
2023/12/26 06:30:05;;;;;;;16.53;3.37;;;8.50;1.00;;;;;;5018951;28;20187;-52
2023/12/26 06:32:30;;;;;;;13.23;2.83;;;8.50;1.00;;;;;;5018267;28;20180;-53
2023/12/26 06:34:56;;;;;;;15.53;3.27;;;8.50;1.00;;;;;;5016503;28;20541;-52
2023/12/26 06:37:22;;;;;;;14.23;2.40;;;8.60;99.90;;;;;;5011820;28;20283;-53
2023/12/26 06:39:47;;;;;;;12.47;3.03;;;8.60;99.90;;;;;;5015883;28;20191;-52
2023/12/26 06:42:13;;;;;;;19.53;3.90;;;8.60;99.90;;;;;;5015770;28;20691;-52
2023/12/26 06:44:40;;;;;;;11.80;2.80;;;8.70;47.60;;;;;;5017233;28;20670;-52
2023/12/26 06:47:06;;;;;;;14.60;3.20;;;8.60;1.00;;;;;;5014905;28;20227;-52
2023/12/26 06:49:31;;;;;;;11.47;2.73;;;8.60;48.20;;;;;;5014851;28;20910;-52
2023/12/26 06:51:59;;;;;;;17.80;2.93;;;8.60;1.00;;;;;;5012223;28;20190;-53
2023/12/26 06:54:25;;;;;;;19.50;2.93;;;8.60;99.90;;;;;;5013813;28;20176;-52
2023/12/26 06:56:50;;;;;;;17.80;3.37;;;8.60;99.90;;;;;;5019280;28;20797;-53
2023/12/26 06:59:16;;;;;;;15.50;3.07;;;8.60;1.00;;;;;;5013991;28;20255;-53
2023/12/26 07:01:46;;;;;;;24.77;3.67;;;8.60;99.90;;;;;;5018032;28;20187;-53
2023/12/26 07:04:12;;;;;;;15.83;3.00;;;8.60;99.90;;;;;;5016195;28;20179;-53
2023/12/26 07:06:38;;;;;;;18.20;3.23;;;8.60;99.90;;;;;;5015058;28;20481;-53
2023/12/26 07:09:03;;;;;;;12.73;2.70;;;8.60;99.90;;;;;;5019250;28;20955;-53
2023/12/26 07:11:29;;;;;;;15.67;3.20;;;8.60;99.90;;;;;;5016228;28;20278;-54
2023/12/26 07:13:55;;;;;;;11.00;3.00;;;8.70;99.90;;;;;;5015603;28;20278;-53
2023/12/26 07:16:20;;;;;;;18.67;3.20;;;8.70;99.90;;;;;;5020973;28;20770;-53
2023/12/26 07:18:47;;;;;;;11.03;2.80;;;8.70;85.50;;;;;;5016756;28;20660;-53
2023/12/26 07:21:16;;;;;;;16.03;3.30;;;8.70;99.90;;;;;;5021000;28;20690;-53
2023/12/26 07:23:46;;;;;;;21.23;3.03;;;8.60;1.00;;;;;;5019091;28;20450;-53
2023/12/26 07:26:13;;;;;;;21.47;3.83;;;8.50;99.90;;;;;;5015222;28;20443;-53
2023/12/26 07:28:38;;;;;;;18.90;3.20;;;8.50;99.90;;;;;;5015223;28;20475;-53
2023/12/26 07:31:04;;;;;;;14.10;2.37;;;8.50;99.90;;;;;;5016164;28;20513;-54
2023/12/26 07:33:30;;;;;;;14.70;2.83;;;8.50;99.90;;;;;;5009042;28;20195;-53
2023/12/26 07:35:57;;;;;;;21.33;3.00;;;8.50;99.90;;;;;;5018727;28;20191;-52
2023/12/26 07:38:26;;;;;;;13.17;2.40;;;8.50;1.00;;;;;;5013224;28;20618;-53
2023/12/26 07:40:51;;;;;;;20.50;3.47;;;8.60;99.90;;;;;;5013608;28;20494;-53
2023/12/26 07:43:17;;;;;;;12.83;2.30;;;8.60;1.00;;;;;;5017957;28;20443;-53
2023/12/26 07:45:43;;;;;;;22.17;2.63;;;8.70;99.90;;;;;;5016237;28;20185;-54
2023/12/26 07:48:10;;;;;;;17.40;3.23;;;8.60;99.90;;;;;;5014954;28;20549;-53
2023/12/26 07:50:37;;;;;;;13.43;2.60;;;8.60;1.00;;;;;;5014877;28;20442;-53
2023/12/26 07:53:04;;;;;;;16.27;2.97;;;8.60;1.00;;;;;;5019621;28;20475;-53
2023/12/26 07:55:32;;;;;;;14.87;2.50;;;8.60;1.00;;;;;;5010807;28;20466;-52
2023/12/26 07:57:58;;;;;;;23.43;2.73;;;8.60;99.90;;;;;;5015673;28;20442;-53
2023/12/26 08:00:24;;;;;;;10.50;3.20;;;8.60;99.90;;;;;;5017944;28;20447;-53
2023/12/26 08:02:49;;;;;;;14.50;3.10;;;8.60;1.00;;;;;;5010839;28;20504;-52
2023/12/26 08:05:15;;;;;;;26.77;3.57;;;8.50;1.00;;;;;;5016913;28;20189;-52
2023/12/26 08:07:41;;;;;;;17.90;3.00;;;8.50;1.00;;;;;;5013989;28;20244;-53
2023/12/26 08:10:11;;;;;;;13.17;3.07;;;8.50;1.00;;;;;;5015541;28;20207;-53
2023/12/26 08:12:37;;;;;;;15.73;3.30;;;8.50;99.90;;;;;;5018230;28;20431;-53
2023/12/26 08:15:02;;;;;;;19.40;3.10;;;8.60;1.00;;;;;;5013497;28;20201;-53
2023/12/26 08:17:28;;;;;;;15.50;2.70;;;8.60;1.00;;;;;;5020337;28;20239;-53
2023/12/26 08:19:54;;;;;;;18.20;2.90;;;8.50;1.00;;;;;;5017873;28;20364;-52
2023/12/26 08:22:19;;;;;;;13.03;2.87;;;8.50;1.00;;;;;;5019676;28;20187;-53
2023/12/26 08:24:45;;;;;;;21.07;3.30;;;8.60;1.00;;;;;;5016359;28;20285;-53
2023/12/26 08:27:11;;;;;;;19.80;3.53;;;8.50;7.40;;;;;;5020131;28;20849;-53
2023/12/26 08:29:36;;;;;;;17.50;2.70;;;8.50;99.90;;;;;;5019512;28;20346;-53
2023/12/26 08:32:02;;;;;;;23.67;3.70;;;8.50;99.90;;;;;;5018911;28;20192;-54
2023/12/26 08:34:28;;;;;;;20.03;3.33;;;8.50;99.90;;;;;;5020830;28;21366;-52
2023/12/26 08:36:53;;;;;;;20.73;3.30;;;8.50;99.90;;;;;;5017681;28;20191;-52
2023/12/26 08:39:20;;;;;;;11.83;2.90;;;8.50;99.90;;;;;;5012173;28;21201;-52
2023/12/26 08:41:45;;;;;;;17.87;2.80;;;8.50;99.90;;;;;;5010506;28;20680;-54
2023/12/26 08:44:11;;;;;;;18.83;3.13;;;8.60;99.90;;;;;;5016198;28;20529;-53
2023/12/26 08:46:39;;;;;;;18.07;2.30;;;8.60;99.90;;;;;;5015180;28;20648;-53
2023/12/26 08:49:04;;;;;;;20.40;2.47;;;8.70;99.90;;;;;;5015777;28;20231;-54
2023/12/26 08:51:30;;;;;;;17.07;3.73;;;8.60;99.90;;;;;;5012139;28;21031;-54
2023/12/26 08:53:56;;;;;;;18.63;2.93;;;8.60;99.90;;;;;;5017212;28;20202;-52
2023/12/26 08:56:25;;;;;;;19.60;3.80;;;8.60;99.90;;;;;;5016889;28;20434;-53
2023/12/26 08:58:51;;;;;;;18.00;3.03;;;8.60;99.90;;;;;;5010949;28;20287;-50
2023/12/26 09:01:16;;;;;;;19.80;2.63;;;8.60;99.90;;;;;;5019543;28;20540;-52
2023/12/26 09:03:43;;;;;;;19.73;2.90;;;8.60;99.90;;;;;;5015826;28;21102;-53
2023/12/26 09:06:12;;;;;;;21.23;2.80;;;8.60;99.90;;;;;;5010459;28;20240;-51
2023/12/26 09:08:37;;;;;;;18.93;2.87;;;8.70;99.90;;;;;;5016622;28;20477;-51
2023/12/26 09:11:04;;;;;;;17.30;2.53;;;8.60;99.90;;;;;;5016503;28;20434;-52
2023/12/26 09:13:29;;;;;;;22.93;2.93;;;8.60;99.90;;;;;;5016736;28;20222;-51
2023/12/26 09:15:58;;;;;;;13.03;2.90;;;8.60;99.90;;;;;;5014126;28;20950;-52
2023/12/26 09:18:23;;;;;;;18.97;3.30;;;8.60;99.90;;;;;;5019958;28;20664;-52
2023/12/26 09:20:49;;;;;;;11.17;2.70;;;8.60;99.90;;;;;;5014432;28;20502;-52
2023/12/26 09:23:15;;;;;;;13.93;2.77;;;8.60;99.90;;;;;;5013599;28;20286;-53
2023/12/26 09:25:40;;;;;;;14.57;4.07;;;8.60;99.90;;;;;;5014480;28;20186;-52
2023/12/26 09:28:08;;;;;;;12.23;3.27;;;8.60;99.90;;;;;;5021536;28;20215;-52
2023/12/26 09:30:34;;;;;;;11.10;2.73;;;8.60;99.90;;;;;;5018165;28;20289;-51
2023/12/26 09:33:00;;;;;;;14.30;3.17;;;8.60;99.90;;;;;;5014300;28;20443;-52
2023/12/26 09:35:26;;;;;;;11.13;2.47;;;8.70;99.90;;;;;;5022583;28;20247;-52
2023/12/26 09:37:51;;;;;;;15.40;2.80;;;8.70;99.90;;;;;;5018862;28;20638;-53
2023/12/26 09:40:18;;;;;;;15.13;2.60;;;8.80;99.90;;;;;;5019078;28;20192;-52
2023/12/26 09:42:44;;;;;;;17.03;3.33;;;8.70;99.90;;;;;;5019551;28;20199;-53
2023/12/26 09:45:13;;;;;;;11.30;3.07;;;8.70;99.90;;;;;;5021644;28;20795;-53
2023/12/26 09:47:43;;;;;;;12.77;2.50;;;8.70;99.90;;;;;;5016377;28;20250;-52
2023/12/26 09:50:11;;;;;;;15.37;2.77;;;8.80;99.90;;;;;;5017454;28;20552;-53
2023/12/26 09:52:39;;;;;;;22.93;3.40;;;8.70;99.90;;;;;;5024427;28;20438;-52
2023/12/26 09:55:05;;;;;;;18.70;3.03;;;8.70;99.90;;;;;;5016077;28;20439;-53
2023/12/26 09:57:31;;;;;;;21.67;3.23;;;8.60;99.90;;;;;;5027117;28;20442;-53
2023/12/26 09:59:57;;;;;;;20.63;3.30;;;8.60;99.90;;;;;;5020018;28;20446;-52
2023/12/26 10:02:23;;;;;;;10.87;2.77;;;8.60;99.90;;;;;;5022156;28;20266;-52
2023/12/26 10:04:49;;;;;;;14.47;2.73;;;8.60;99.90;;;;;;5016903;28;20918;-52
2023/12/26 10:07:17;;;;;;;17.57;2.70;;;8.60;99.90;;;;;;5020259;28;20259;-52
2023/12/26 10:09:43;;;;;;;13.80;4.70;;;8.70;99.90;;;;;;5019527;28;20454;-52
2023/12/26 10:12:09;;;;;;;10.43;2.47;;;8.70;99.90;;;;;;5014854;28;20438;-52
2023/12/26 10:14:35;;;;;;;14.20;2.50;;;8.70;99.90;;;;;;5021590;28;20183;-52
2023/12/26 10:17:01;;;;;;;13.10;2.97;;;8.70;99.90;;;;;;5023514;28;20643;-52
2023/12/26 10:19:27;;;;;;;13.33;2.60;;;8.80;99.90;;;;;;5018113;28;20523;-52
2023/12/26 10:21:53;;;;;;;12.60;2.37;;;8.80;99.90;;;;;;5023666;28;20184;-52
2023/12/26 10:24:20;;;;;;;15.90;2.90;;;8.80;99.90;;;;;;5024612;28;20440;-52
2023/12/26 10:26:46;;;;;;;11.60;2.40;;;8.80;99.90;;;;;;5024116;28;20226;-51
2023/12/26 10:29:13;;;;;;;15.13;3.17;;;8.80;99.90;;;;;;5022633;28;20504;-53
2023/12/26 10:31:40;;;;;;;11.10;2.43;;;8.80;99.90;;;;;;5024256;28;20441;-52
2023/12/26 10:34:17;;;;;;;9.40;2.10;;;8.80;99.90;;;;;;5024723;28;20442;-53
2023/12/26 10:36:48;;;;;;;19.93;2.70;;;8.70;99.90;;;;;;5022014;28;20793;-52
2023/12/26 10:39:14;;;;;;;11.13;2.00;;;8.50;99.90;;;;;;5019802;28;21094;-51
2023/12/26 10:41:45;;;;;;;12.37;2.73;;;8.40;99.90;;;;;;5015150;28;20437;-51
2023/12/26 10:44:12;;;;;;;16.03;2.17;;;8.20;1.00;;;;;;5022756;28;20434;-52
2023/12/26 10:46:39;;;;;;;16.10;2.40;;;8.10;99.90;;;;;;5020695;28;20496;-52
2023/12/26 10:49:09;;;;;;;7.37;2.60;;;8.00;1.00;;;;;;5020322;28;20431;-52
2023/12/26 10:51:40;;;;;;;11.57;2.63;;;8.00;99.90;;;;;;5024275;28;20480;-51
2023/12/26 10:54:06;;;;;;;15.57;3.73;;;7.90;1.00;;;;;;5022331;28;20441;-50
2023/12/26 10:56:32;;;;;;;13.40;2.50;;;7.90;1.00;;;;;;5016184;28;20795;-52
2023/12/26 10:58:59;;;;;;;15.27;2.93;;;7.90;76.90;;;;;;5022959;28;20524;-51
2023/12/26 13:53:47;;;;;;;1.97;0.90;;;6.90;99.90;;;;;;5016642;28;20449;-52
2023/12/26 13:56:50;;;;;;;2.03;0.87;;;6.80;99.20;;;;;;5014961;28;20491;-52
2023/12/26 13:59:53;;;;;;;4.00;0.93;;;6.80;1.00;;;;;;5014171;28;20449;-52
2023/12/26 14:02:56;;;;;;;9.97;1.30;;;6.70;99.90;;;;;;5017796;28;20473;-52
2023/12/26 14:05:58;;;;;;;3.37;1.00;;;6.70;99.90;;;;;;5014149;28;20445;-51
2023/12/26 14:09:03;;;;;;;4.47;1.10;;;6.70;1.00;;;;;;5016476;28;20466;-53
2023/12/26 14:12:06;;;;;;;1.53;0.97;;;6.60;1.00;;;;;;5018026;28;20450;-52
2023/12/26 14:15:09;;;;;;;3.63;1.33;;;6.70;1.00;;;;;;5018121;28;20451;-53
2023/12/26 14:18:11;;;;;;;2.30;1.00;;;6.70;1.00;;;;;;5012218;28;20485;-49
2023/12/26 14:21:14;;;;;;;6.70;1.23;;;6.70;9.20;;;;;;5023605;28;20479;-53
2023/12/26 14:24:17;;;;;;;8.10;1.07;;;6.70;20.70;;;;;;5014786;28;20544;-53
2023/12/26 14:27:20;;;;;;;3.77;0.90;;;6.70;29.20;;;;;;5017897;28;20466;-53
2023/12/26 14:30:23;;;;;;;3.53;1.00;;;6.60;32.50;;;;;;5017689;28;20455;-52
2023/12/26 14:33:26;;;;;;;9.13;1.20;;;6.60;34.10;;;;;;5023028;28;20462;-52
2023/12/26 14:36:30;;;;;;;5.40;1.07;;;6.60;19.60;;;;;;5016340;28;20456;-51
2023/12/26 14:39:32;;;;;;;5.50;1.00;;;6.50;13.30;;;;;;5019389;28;20461;-53
2023/12/26 14:42:35;;;;;;;8.20;2.00;;;6.50;1.00;;;;;;5015909;28;20445;-52
2023/12/26 14:45:38;;;;;;;8.97;1.20;;;6.50;1.00;;;;;;5022774;28;20449;-52
2023/12/26 14:48:41;;;;;;;7.80;1.33;;;6.40;1.00;;;;;;5019485;28;20963;-52
2023/12/26 14:51:44;;;;;;;3.47;1.27;;;6.40;4.40;;;;;;5017361;28;20532;-52
2023/12/26 14:54:47;;;;;;;4.17;1.00;;;6.40;31.00;;;;;;5022187;28;20497;-52
2023/12/26 14:57:50;;;;;;;10.10;1.13;;;6.40;51.10;;;;;;5026862;28;20799;-52
2023/12/26 15:00:53;;;;;;;12.43;1.10;;;6.40;64.30;;;;;;5010301;28;21021;-52
2023/12/26 15:03:23;;;;;;;8.60;1.33;;;6.40;82.90;;;;;;5011030;28;20500;-52
2023/12/26 15:05:50;;;;;;;9.70;1.50;;;6.40;93.70;;;;;;5016567;28;20490;-52
2023/12/26 15:08:16;;;;;;;6.00;1.40;;;6.40;91.30;;;;;;5012965;28;20463;-52
2023/12/26 15:10:41;;;;;;;9.60;1.23;;;6.40;86.00;;;;;;5012818;28;20187;-53
2023/12/26 15:13:07;;;;;;;15.53;1.80;;;6.40;92.80;;;;;;5015185;28;20250;-52
2023/12/26 15:15:33;;;;;;;8.30;1.53;;;6.30;90.00;;;;;;5008534;28;20185;-52
2023/12/26 15:17:58;;;;;;;7.30;1.80;;;6.30;78.10;;;;;;5021550;28;20191;-53
2023/12/26 15:20:24;;;;;;;12.47;2.33;;;6.20;89.50;;;;;;5016320;28;20188;-52
2023/12/26 15:22:49;;;;;;;6.40;1.20;;;6.20;83.70;;;;;;5015339;28;20183;-52
2023/12/26 15:25:15;;;;;;;16.30;2.00;;;6.10;91.80;;;;;;5014490;28;20598;-52
2023/12/26 15:27:41;;;;;;;7.10;1.60;;;6.10;99.90;;;;;;5012443;28;20216;-53
2023/12/26 15:30:09;;;;;;;15.53;2.40;;;6.20;99.90;;;;;;5019837;28;20192;-52
2023/12/26 15:32:35;;;;;;;9.53;2.17;;;6.30;92.70;;;;;;5019488;28;20542;-52
2023/12/26 15:35:03;;;;;;;7.60;1.50;;;6.30;85.60;;;;;;5012715;28;20520;-52
2023/12/26 15:37:29;;;;;;;16.93;2.20;;;6.30;84.50;;;;;;5015078;28;20191;-52
2023/12/26 15:39:55;;;;;;;13.97;2.37;;;6.30;49.40;;;;;;5019006;28;20434;-52
2023/12/26 15:42:20;;;;;;;15.07;3.43;;;6.20;29.60;;;;;;5013444;28;20211;-52
2023/12/26 15:44:46;;;;;;;6.20;1.60;;;6.20;39.20;;;;;;5015731;28;20195;-52
2023/12/26 15:47:13;;;;;;;8.60;1.80;;;6.10;4.30;;;;;;5011772;28;20222;-52
2023/12/26 15:49:39;;;;;;;7.10;1.30;;;6.10;1.00;;;;;;5013353;28;20267;-52
2023/12/26 15:52:04;;;;;;;4.90;1.60;;;6.10;1.00;;;;;;5015993;28;20520;-52
2023/12/26 15:54:31;;;;;;;6.63;1.63;;;6.10;1.00;;;;;;5018647;28;20817;-52